createdAt,value
2018-07-09T00:00:17.780Z,2.50
2018-07-09T00:02:52.213Z,2.00
2018-07-09T00:05:28.375Z,2.00
2018-07-09T00:08:01.628Z,2.00
2018-07-09T00:10:46.654Z,2.00
2018-07-09T00:13:21.712Z,2.67
2018-07-09T00:15:55.927Z,2.00
2018-07-09T00:18:29.352Z,2.00
2018-07-09T00:21:05.881Z,2.00
2018-07-09T00:23:40.596Z,2.00
2018-07-09T00:26:15.163Z,2.00
2018-07-09T00:28:52.246Z,2.17
2018-07-09T00:31:25.567Z,2.17
2018-07-09T00:34:09.143Z,2.83
2018-07-09T00:36:46.003Z,2.00
2018-07-09T00:39:24.325Z,2.00
2018-07-09T00:41:58.273Z,2.83
2018-07-09T00:44:38.554Z,2.00
2018-07-09T00:47:13.712Z,2.00
2018-07-09T00:49:47.047Z,2.33
2018-07-09T00:52:20.518Z,1.83
2018-07-09T00:54:55.764Z,2.33
2018-07-09T00:57:28.880Z,2.00
2018-07-09T01:00:02.101Z,2.00
2018-07-09T01:02:38.033Z,2.33
2018-07-09T01:05:12.057Z,2.17
2018-07-09T01:07:49.176Z,2.00
2018-07-09T01:10:22.439Z,2.83
2018-07-09T01:12:57.006Z,2.00
2018-07-09T01:15:31.504Z,2.00
2018-07-09T01:18:06.237Z,2.00
2018-07-09T01:20:39.355Z,2.00
2018-07-09T01:23:14.765Z,2.14
2018-07-09T01:25:48.531Z,2.00
2018-07-09T01:28:23.420Z,2.50
2018-07-09T01:30:56.413Z,2.00
2018-07-09T01:33:30.390Z,2.00
2018-07-09T01:36:03.825Z,2.83
2018-07-09T01:38:37.129Z,2.00
2018-07-09T01:41:11.241Z,2.50
2018-07-09T01:43:45.998Z,2.50
2018-07-09T01:46:19.581Z,2.50
2018-07-09T01:48:55.229Z,2.86
2018-07-09T01:51:29.737Z,3.33
2018-07-09T01:54:03.108Z,2.00
2018-07-09T01:56:37.721Z,2.83
2018-07-09T01:59:10.890Z,2.17
2018-07-09T02:01:44.349Z,2.00
2018-07-09T02:04:19.540Z,2.00
2018-07-09T02:06:54.222Z,2.33
2018-07-09T02:09:28.645Z,2.00
2018-07-09T02:12:03.310Z,2.50
2018-07-09T02:14:36.625Z,2.00
2018-07-09T02:17:12.903Z,2.50
2018-07-09T02:19:46.210Z,3.00
2018-07-09T02:22:19.408Z,2.00
2018-07-09T02:24:53.216Z,2.67
2018-07-09T02:27:26.460Z,3.00
2018-07-09T02:29:59.834Z,2.00
2018-07-09T02:32:34.206Z,2.00
2018-07-09T02:35:07.484Z,2.00
2018-07-09T02:37:40.723Z,2.17
2018-07-09T02:40:13.934Z,2.00
2018-07-09T02:42:48.235Z,3.00
2018-07-09T02:45:22.511Z,2.17
2018-07-09T02:47:55.685Z,2.33
2018-07-09T02:50:29.931Z,2.00
2018-07-09T02:53:03.632Z,1.83
2018-07-09T02:55:36.791Z,2.00
2018-07-09T02:58:10.431Z,2.83
2018-07-09T03:00:43.688Z,2.00
2018-07-09T03:03:16.841Z,3.33
2018-07-09T03:05:54.386Z,2.00
2018-07-09T03:08:29.465Z,2.83
2018-07-09T03:11:03.015Z,2.17
2018-07-09T03:13:37.460Z,2.67
2018-07-09T03:16:10.821Z,3.17
2018-07-09T03:18:44.976Z,2.00
2018-07-09T03:21:22.211Z,2.67
2018-07-09T03:23:56.685Z,1.67
2018-07-09T03:26:29.867Z,3.33
2018-07-09T03:29:03.811Z,3.33
2018-07-09T03:31:36.713Z,2.17
2018-07-09T03:34:10.245Z,3.17
2018-07-09T03:36:43.439Z,2.67
2018-07-09T03:39:17.442Z,3.67
2018-07-09T03:41:50.828Z,3.33
2018-07-09T03:44:25.356Z,3.86
2018-07-09T03:47:03.867Z,2.67
2018-07-09T03:49:36.832Z,2.00
2018-07-09T03:52:10.001Z,4.00
2018-07-09T03:54:44.281Z,2.00
2018-07-09T03:57:18.460Z,1.67
2018-07-09T03:59:51.684Z,2.00
2018-07-09T04:02:26.288Z,2.67
2018-07-09T04:04:59.464Z,3.33
2018-07-09T04:07:32.608Z,2.00
2018-07-09T04:10:06.257Z,2.50
2018-07-09T04:12:44.651Z,2.00
2018-07-09T04:15:22.459Z,2.17
2018-07-09T04:17:55.693Z,2.00
2018-07-09T04:20:29.422Z,2.00
2018-07-09T04:23:02.866Z,1.83
2018-07-09T04:25:36.610Z,3.33
2018-07-09T04:28:09.796Z,1.17
2018-07-09T04:30:43.020Z,3.00
2018-07-09T04:33:16.457Z,3.00
2018-07-09T04:35:51.377Z,3.00
2018-07-09T04:38:24.526Z,2.33
2018-07-09T04:40:57.698Z,2.00
2018-07-09T04:43:32.292Z,2.00
2018-07-09T04:46:05.848Z,2.00
2018-07-09T04:48:39.171Z,2.67
2018-07-09T04:51:12.353Z,2.67
2018-07-09T04:53:45.625Z,3.00
2018-07-09T04:56:20.112Z,2.71
2018-07-09T04:58:53.585Z,2.83
2018-07-09T05:01:26.778Z,2.17
2018-07-09T05:04:00.300Z,2.50
2018-07-09T05:09:16.707Z,3.00
2018-07-09T05:11:50.578Z,3.00
2018-07-09T05:14:24.099Z,3.17
2018-07-09T05:16:58.846Z,2.00
2018-07-09T05:19:32.203Z,2.00
2018-07-09T05:22:05.829Z,2.00
2018-07-09T05:24:39.101Z,2.17
2018-07-09T05:27:12.262Z,2.00
2018-07-09T05:29:48.422Z,2.29
2018-07-09T05:32:23.532Z,2.00
2018-07-09T05:35:00.107Z,2.00
2018-07-09T05:37:33.359Z,1.83
2018-07-09T05:40:07.489Z,2.50
2018-07-09T05:42:41.265Z,3.00
2018-07-09T05:45:16.381Z,2.33
2018-07-09T05:47:49.542Z,2.50
2018-07-09T05:50:23.105Z,2.17
2018-07-09T05:52:56.571Z,2.33
2018-07-09T05:55:30.211Z,2.17
2018-07-09T05:58:24.626Z,3.33
2018-07-09T06:00:58.679Z,3.00
2018-07-09T06:03:32.769Z,2.00
2018-07-09T06:06:06.143Z,2.00
2018-07-09T06:08:40.397Z,2.50
2018-07-09T06:11:14.444Z,3.17
2018-07-09T06:13:48.292Z,3.00
2018-07-09T06:16:22.330Z,3.00
2018-07-09T06:18:56.416Z,2.17
2018-07-09T06:21:29.868Z,2.00
2018-07-09T06:24:04.316Z,2.33
2018-07-09T06:26:38.868Z,2.50
2018-07-09T06:29:23.662Z,2.67
2018-07-09T06:32:07.631Z,2.33
2018-07-09T06:34:41.069Z,3.00
2018-07-09T06:37:15.433Z,2.33
2018-07-09T06:39:52.812Z,3.00
2018-07-09T06:42:40.054Z,2.50
2018-07-09T06:47:41.840Z,3.00
2018-07-09T06:50:15.245Z,3.00
2018-07-09T06:52:48.926Z,3.00
2018-07-09T06:55:22.316Z,3.00
2018-07-09T06:57:57.240Z,3.00
2018-07-09T07:00:38.741Z,3.00
2018-07-09T07:03:13.363Z,3.00
2018-07-09T07:05:49.542Z,2.17
2018-07-09T07:11:13.521Z,2.83
2018-07-09T07:13:48.122Z,4.00
2018-07-09T07:16:23.062Z,3.00
2018-07-09T07:18:56.631Z,3.50
2018-07-09T07:21:29.894Z,3.00
2018-07-09T07:24:05.355Z,3.00
2018-07-09T07:26:39.354Z,3.00
2018-07-09T07:29:13.595Z,2.00
2018-07-09T07:31:47.108Z,3.00
2018-07-09T07:34:21.479Z,3.00
2018-07-09T07:36:54.871Z,2.83
2018-07-09T07:39:29.618Z,2.83
2018-07-09T07:42:03.763Z,3.00
2018-07-09T07:44:37.611Z,3.83
2018-07-09T07:47:10.925Z,3.17
2018-07-09T07:49:44.139Z,3.17
2018-07-09T07:52:17.378Z,3.00
2018-07-09T07:54:51.468Z,3.00
2018-07-09T07:57:27.467Z,3.17
2018-07-09T08:00:01.584Z,3.00
2018-07-09T08:02:35.602Z,3.17
2018-07-09T08:07:36.879Z,3.75
2018-07-09T08:10:24.356Z,3.17
2018-07-09T08:13:26.863Z,4.00
2018-07-09T08:15:36.857Z,3.00
2018-07-09T08:18:13.963Z,3.00
2018-07-09T08:20:47.554Z,3.50
2018-07-09T08:23:21.409Z,3.50
2018-07-09T08:25:56.372Z,4.00
2018-07-09T08:28:31.513Z,3.33
2018-07-09T08:31:05.172Z,3.33
2018-07-09T08:33:38.928Z,3.17
2018-07-09T08:36:13.043Z,4.50
2018-07-09T08:39:11.861Z,3.17
2018-07-09T08:42:00.919Z,4.00
2018-07-09T08:44:38.138Z,4.00
2018-07-09T08:47:32.097Z,3.67
2018-07-09T08:50:14.688Z,4.17
2018-07-09T08:52:50.528Z,4.00
2018-07-09T08:57:40.032Z,3.83
2018-07-09T09:00:18.346Z,4.00
2018-07-09T09:02:54.563Z,4.00
2018-07-09T09:05:28.129Z,4.00
2018-07-09T09:08:10.287Z,4.00
2018-07-09T09:10:45.168Z,4.83
2018-07-09T09:13:18.464Z,4.00
2018-07-09T09:15:52.004Z,3.17
2018-07-09T09:18:28.713Z,4.33
2018-07-09T09:21:03.836Z,4.00
2018-07-09T09:23:53.093Z,4.00
2018-07-09T09:31:20.568Z,4.00
2018-07-09T09:33:55.655Z,3.33
2018-07-09T09:36:31.980Z,3.83
2018-07-09T09:39:07.623Z,2.67
2018-07-09T09:41:45.121Z,3.83
2018-07-09T09:44:40.858Z,4.00
2018-07-09T09:51:41.400Z,4.00
2018-07-09T09:54:26.463Z,3.00
2018-07-09T09:57:32.271Z,4.17
2018-07-09T10:00:40.409Z,3.17
2018-07-09T10:03:31.559Z,3.00
2018-07-09T10:31:26.462Z,3.00
2018-07-09T10:40:29.619Z,3.67
2018-07-09T10:43:04.670Z,3.17
2018-07-09T10:50:30.711Z,3.67
2018-07-09T10:53:30.340Z,4.00
2018-07-09T10:56:07.409Z,3.67
2018-07-09T11:01:46.773Z,3.00
2018-07-09T11:04:20.651Z,3.33
2018-07-09T11:06:57.503Z,4.00
2018-07-09T11:09:37.986Z,3.50
2018-07-09T11:12:23.435Z,4.50
2018-07-09T11:14:57.814Z,3.83
2018-07-09T11:17:34.385Z,4.00
2018-07-09T11:20:10.848Z,4.67
2018-07-09T11:22:55.217Z,3.83
2018-07-09T11:25:30.500Z,3.67
2018-07-09T11:28:05.605Z,3.50
2018-07-09T11:30:42.500Z,3.83
2018-07-09T11:33:19.478Z,4.83
2018-07-09T11:35:54.334Z,3.50
2018-07-09T11:38:30.915Z,4.67
2018-07-09T11:41:32.155Z,3.83
2018-07-09T11:47:53.498Z,4.00
2018-07-09T11:50:26.911Z,4.50
2018-07-09T11:53:02.258Z,4.00
2018-07-09T11:55:38.502Z,4.83
2018-07-09T11:58:13.411Z,3.50
2018-07-09T12:00:49.959Z,4.00
2018-07-09T12:03:27.488Z,3.00
2018-07-09T12:06:01.436Z,3.33
2018-07-09T12:08:42.158Z,4.00
2018-07-09T12:11:15.432Z,3.00
2018-07-09T12:13:51.406Z,2.83
2018-07-09T12:16:27.413Z,2.33
2018-07-09T12:19:02.918Z,2.33
2018-07-09T12:21:37.270Z,3.67
2018-07-09T12:24:11.209Z,2.83
2018-07-09T12:26:45.868Z,3.17
2018-07-09T12:29:21.585Z,3.17
2018-07-09T12:31:58.980Z,4.00
2018-07-09T12:34:35.503Z,3.00
2018-07-09T12:37:10.756Z,2.83
2018-07-09T12:39:45.197Z,2.33
2018-07-09T12:43:13.514Z,3.00
2018-07-09T12:45:47.826Z,3.00
2018-07-09T12:51:10.361Z,3.17
2018-07-09T12:54:19.641Z,3.00
2018-07-09T12:56:55.374Z,4.50
2018-07-09T12:59:31.877Z,4.00
2018-07-09T13:02:08.444Z,4.00
2018-07-09T13:04:53.010Z,4.00
2018-07-09T13:07:28.824Z,3.17
2018-07-09T13:11:18.916Z,3.33
2018-07-09T13:13:53.545Z,4.17
2018-07-09T13:16:45.269Z,3.17
2018-07-09T13:22:32.686Z,4.00
2018-07-09T13:30:16.685Z,4.00
2018-07-09T13:32:50.100Z,4.00
2018-07-09T13:35:24.505Z,3.83
2018-07-09T13:37:59.450Z,4.00
2018-07-09T13:40:33.033Z,4.00
2018-07-09T13:43:07.423Z,3.33
2018-07-09T13:45:42.626Z,4.17
2018-07-09T13:48:16.471Z,3.33
2018-07-09T13:50:51.349Z,3.33
2018-07-09T13:53:24.776Z,3.33
2018-07-09T13:56:08.401Z,4.17
2018-07-09T13:58:41.986Z,5.00
2018-07-09T14:01:16.068Z,4.50
2018-07-09T14:03:49.467Z,3.33
2018-07-09T14:06:23.448Z,5.00
2018-07-09T14:09:01.648Z,4.50
2018-07-09T14:11:36.418Z,4.00
2018-07-09T14:14:26.647Z,4.00
2018-07-09T14:17:02.085Z,4.00
2018-07-09T14:20:41.582Z,3.33
2018-07-09T14:23:16.527Z,4.00
2018-07-09T14:25:50.493Z,3.33
2018-07-09T14:28:25.148Z,3.33
2018-07-09T14:31:01.473Z,4.00
2018-07-09T14:33:39.195Z,3.83
2018-07-09T14:36:14.769Z,3.17
2018-07-09T14:38:51.667Z,3.67
2018-07-09T14:41:25.204Z,3.67
2018-07-09T14:44:00.527Z,3.67
2018-07-09T14:46:36.529Z,4.33
2018-07-09T14:49:11.351Z,3.67
2018-07-09T14:51:47.120Z,3.67
2018-07-09T14:54:25.307Z,3.33
2018-07-09T14:57:00.222Z,3.33
2018-07-09T14:59:35.070Z,3.50
2018-07-09T15:02:09.198Z,4.00
2018-07-09T15:04:42.496Z,4.00
2018-07-09T15:07:17.307Z,4.00
2018-07-09T15:09:55.582Z,3.83
2018-07-09T15:12:30.765Z,4.00
2018-07-09T15:15:08.184Z,4.00
2018-07-09T15:17:41.892Z,4.00
2018-07-09T15:20:17.476Z,5.00
2018-07-09T15:22:51.561Z,5.00
2018-07-09T15:25:26.180Z,3.33
2018-07-09T15:28:00.250Z,3.17
2018-07-09T15:31:05.464Z,3.17
2018-07-09T15:33:41.710Z,3.83
2018-07-09T15:36:16.653Z,3.00
2018-07-09T15:38:51.618Z,2.00
2018-07-09T15:41:25.821Z,2.50
2018-07-09T15:44:02.295Z,3.00
2018-07-09T15:46:36.030Z,3.00
2018-07-09T15:49:12.323Z,3.50
2018-07-09T15:51:46.630Z,2.67
2018-07-09T15:54:25.607Z,2.17
2018-07-09T15:57:01.772Z,2.00
2018-07-09T15:59:37.997Z,2.00
2018-07-09T16:02:11.986Z,2.00
2018-07-09T16:04:51.023Z,2.67
2018-07-09T16:07:28.121Z,2.00
2018-07-09T16:10:12.037Z,1.50
2018-07-09T16:12:47.224Z,1.67
2018-07-09T16:15:23.362Z,1.33
2018-07-09T16:17:57.825Z,1.67
2018-07-09T16:21:01.859Z,2.00
2018-07-09T16:23:35.217Z,2.00
2018-07-09T16:26:11.655Z,2.00
2018-07-09T16:32:31.802Z,1.33
2018-07-09T16:35:10.394Z,2.00
2018-07-09T16:39:53.243Z,2.00
2018-07-09T16:42:29.873Z,2.00
2018-07-09T16:45:08.557Z,2.00
2018-07-09T16:47:43.093Z,2.00
2018-07-09T16:50:17.462Z,2.00
2018-07-09T16:52:52.487Z,2.00
2018-07-09T16:55:25.518Z,2.00
2018-07-09T16:58:01.543Z,1.50
2018-07-09T17:00:35.687Z,2.00
2018-07-09T17:03:10.668Z,1.83
2018-07-09T17:05:45.265Z,2.00
2018-07-09T17:08:19.949Z,1.67
2018-07-09T17:10:53.913Z,1.50
2018-07-09T17:13:33.145Z,2.50
2018-07-09T17:16:07.210Z,2.00
2018-07-09T17:18:42.481Z,2.50
2018-07-09T17:21:23.255Z,2.33
2018-07-09T17:23:58.900Z,3.67
2018-07-09T17:26:35.562Z,2.67
2018-07-09T17:29:09.436Z,3.17
2018-07-09T17:31:49.761Z,3.00
2018-07-09T17:34:23.709Z,3.00
2018-07-09T17:36:58.625Z,3.00
2018-07-09T17:39:32.234Z,3.83
2018-07-09T17:42:07.461Z,3.00
2018-07-09T17:44:42.650Z,3.50
2018-07-09T17:47:17.177Z,3.00
2018-07-09T17:49:53.578Z,4.00
2018-07-09T17:52:29.858Z,3.17
2018-07-09T17:55:02.757Z,3.17
2018-07-09T17:57:39.322Z,4.00
2018-07-09T18:00:14.553Z,3.17
2018-07-09T18:02:53.035Z,4.33
2018-07-09T18:05:29.318Z,4.00
2018-07-09T18:08:10.455Z,3.33
2018-07-09T18:10:47.744Z,4.50
2018-07-09T18:13:22.589Z,4.33
2018-07-09T18:15:56.370Z,3.83
2018-07-09T18:18:37.635Z,4.00
2018-07-09T18:21:15.477Z,3.00
2018-07-09T18:23:55.377Z,4.17
2018-07-09T18:26:30.124Z,4.00
2018-07-09T18:29:13.428Z,4.50
2018-07-09T18:31:54.904Z,4.00
2018-07-09T18:34:32.084Z,3.50
2018-07-09T18:37:08.221Z,4.00
2018-07-09T18:39:43.342Z,4.00
2018-07-09T18:42:17.063Z,4.33
2018-07-09T18:44:52.980Z,3.83
2018-07-09T18:47:30.720Z,3.83
2018-07-09T18:50:03.811Z,4.00
2018-07-09T18:52:39.249Z,5.00
2018-07-09T18:55:15.773Z,4.00
2018-07-09T18:57:51.657Z,4.00
2018-07-09T19:00:32.435Z,5.00
2018-07-09T19:03:08.593Z,3.50
2018-07-09T19:05:52.419Z,3.83
2018-07-09T19:08:30.411Z,2.83
2018-07-09T19:11:06.534Z,3.00
2018-07-09T19:13:42.541Z,4.00
2018-07-09T19:16:20.215Z,3.50
2018-07-09T19:19:06.261Z,3.33
2018-07-09T19:21:52.211Z,3.00
2018-07-09T19:24:28.529Z,3.00
2018-07-09T19:27:01.678Z,3.00
2018-07-09T19:29:35.152Z,3.00
2018-07-09T19:32:07.922Z,3.00
2018-07-09T19:37:19.905Z,3.00
2018-07-09T19:39:52.254Z,3.00
2018-07-09T19:42:25.026Z,3.00
2018-07-09T19:44:58.497Z,3.00
2018-07-09T19:47:30.323Z,3.00
2018-07-09T19:50:06.244Z,2.83
2018-07-09T19:52:39.609Z,3.00
2018-07-09T19:55:20.618Z,3.00
2018-07-09T19:57:53.428Z,2.83
2018-07-09T20:00:30.337Z,3.00
2018-07-09T20:03:02.845Z,3.00
2018-07-09T20:05:36.197Z,2.50
2018-07-09T20:08:10.366Z,2.67
2018-07-09T20:13:51.633Z,3.00
2018-07-09T20:17:30.021Z,2.67
2018-07-09T20:20:01.860Z,3.00
2018-07-09T20:22:34.337Z,3.00
2018-07-09T20:25:12.565Z,3.00
2018-07-09T20:27:44.438Z,2.00
2018-07-09T20:30:21.081Z,2.43
2018-07-09T20:32:53.599Z,2.83
2018-07-09T20:35:25.580Z,3.00
2018-07-09T20:37:58.365Z,3.00
2018-07-09T20:40:31.357Z,2.17
2018-07-09T20:43:03.772Z,3.00
2018-07-09T20:45:37.224Z,3.00
2018-07-09T20:48:10.341Z,2.33
2018-07-09T20:50:43.185Z,2.50
2018-07-09T20:53:16.154Z,2.67
2018-07-09T20:55:49.083Z,3.00
2018-07-09T20:58:23.991Z,3.50
2018-07-09T21:00:55.537Z,3.00
2018-07-09T21:03:31.047Z,3.00
2018-07-09T21:06:04.029Z,2.67
2018-07-09T21:08:37.350Z,3.83
2018-07-09T21:11:10.506Z,3.17
2018-07-09T21:13:42.149Z,3.33
2018-07-09T21:16:18.652Z,3.00
2018-07-09T21:18:50.816Z,3.00
2018-07-09T21:21:32.999Z,3.00
2018-07-09T21:24:05.218Z,2.33
2018-07-09T21:26:39.272Z,3.00
2018-07-09T21:29:17.481Z,3.17
2018-07-09T21:31:52.377Z,3.00
2018-07-09T21:34:25.069Z,3.00
2018-07-09T21:36:56.634Z,3.00
2018-07-09T21:39:30.768Z,4.00
2018-07-09T21:42:02.555Z,4.00
2018-07-09T21:44:35.358Z,3.17
2018-07-09T21:47:07.757Z,4.17
2018-07-09T21:49:39.400Z,3.50
2018-07-09T21:52:13.852Z,4.00
2018-07-09T21:54:48.471Z,4.00
2018-07-09T21:57:22.378Z,4.00
2018-07-09T21:59:55.919Z,3.50
2018-07-09T22:02:28.142Z,4.50
2018-07-09T22:05:00.738Z,4.17
2018-07-09T22:07:33.239Z,4.17
2018-07-09T22:10:05.090Z,4.00
2018-07-09T22:12:38.287Z,4.00
2018-07-09T22:15:13.488Z,3.33
2018-07-09T22:17:45.694Z,4.00
2018-07-09T22:20:17.627Z,3.33
2018-07-09T22:22:49.388Z,3.83
2018-07-09T22:25:21.058Z,4.33
2018-07-09T22:27:53.591Z,4.00
2018-07-09T22:30:32.104Z,3.83
2018-07-09T22:33:09.520Z,3.67
2018-07-09T22:35:43.467Z,5.00
2018-07-09T22:38:17.974Z,4.00
2018-07-09T22:40:53.158Z,3.83
2018-07-09T22:43:37.377Z,3.83
2018-07-09T22:46:12.559Z,4.00
2018-07-09T22:48:46.110Z,3.67
2018-07-09T22:51:19.227Z,4.17
2018-07-09T22:53:53.100Z,4.00
2018-07-09T22:56:28.968Z,4.00
2018-07-09T22:59:01.954Z,4.67
2018-07-09T23:01:35.312Z,4.00
2018-07-09T23:04:08.497Z,5.33
2018-07-09T23:06:43.280Z,7.43
2018-07-09T23:10:24.299Z,4.00
2018-07-09T23:13:21.766Z,5.33
2018-07-09T23:16:04.272Z,6.00
2018-07-09T23:20:56.773Z,6.17
2018-07-09T23:23:28.527Z,6.17
2018-07-09T23:26:02.027Z,6.00
2018-07-09T23:28:33.458Z,8.00
2018-07-09T23:31:04.785Z,8.33
2018-07-09T23:33:36.258Z,7.67
2018-07-09T23:36:09.411Z,6.67
2018-07-09T23:38:42.390Z,6.00
2018-07-09T23:41:12.575Z,7.00
2018-07-09T23:43:43.532Z,7.67
2018-07-09T23:46:13.542Z,6.67
2018-07-09T23:48:43.450Z,6.00
2018-07-09T23:51:13.206Z,6.00
2018-07-09T23:53:47.995Z,6.00
2018-07-09T23:58:34.464Z,6.00
